createdAt,value
2019-04-21T00:00:52.266Z,1021.18
2019-04-21T00:01:49.046Z,1021.18
2019-04-21T00:02:47.613Z,1021.21
2019-04-21T00:03:51.248Z,1021.19
2019-04-21T00:05:00.900Z,1021.21
2019-04-21T00:06:04.625Z,1021.21
2019-04-21T00:07:03.437Z,1021.20
2019-04-21T00:08:07.477Z,1021.18
2019-04-21T00:09:11.422Z,1021.20
2019-04-21T00:10:06.384Z,1021.14
2019-04-21T00:11:09.357Z,1021.18
2019-04-21T00:12:07.474Z,1021.16
2019-04-21T00:13:05.327Z,1021.14
2019-04-21T00:14:01.856Z,1021.12
2019-04-21T00:14:59.402Z,1021.07
2019-04-21T00:15:53.248Z,1021.08
2019-04-21T00:16:55.538Z,1021.04
2019-04-21T00:17:51.777Z,1020.98
2019-04-21T00:18:56.836Z,1021.04
2019-04-21T00:19:46.357Z,1021.04
2019-04-21T00:20:51.178Z,1021.01
2019-04-21T00:21:53.518Z,1021.03
2019-04-21T00:23:00.215Z,1021.03
2019-04-21T00:24:00.405Z,1021.02
2019-04-21T00:25:01.114Z,1021.05
2019-04-21T00:25:59.641Z,1021.04
2019-04-21T00:27:05.559Z,1021.01
2019-04-21T00:28:09.237Z,1021.00
2019-04-21T00:29:09.640Z,1021.03
2019-04-21T00:30:08.667Z,1021.01
2019-04-21T00:31:04.329Z,1021.01
2019-04-21T00:32:03.050Z,1020.96
2019-04-21T00:32:56.323Z,1020.97
2019-04-21T00:33:49.670Z,1020.96
2019-04-21T00:34:53.433Z,1020.93
2019-04-21T00:35:56.261Z,1020.92
2019-04-21T00:36:55.977Z,1020.93
2019-04-21T00:38:09.436Z,1020.92
2019-04-21T00:39:21.581Z,1020.94
2019-04-21T00:40:09.466Z,1020.96
2019-04-21T00:41:11.019Z,1020.90
2019-04-21T00:42:05.684Z,1020.90
2019-04-21T00:43:03.565Z,1020.90
2019-04-21T00:44:02.061Z,1020.85
2019-04-21T00:45:03.493Z,1020.84
2019-04-21T00:45:57.542Z,1020.77
2019-04-21T00:47:04.139Z,1020.80
2019-04-21T00:48:10.062Z,1020.77
2019-04-21T00:49:05.954Z,1020.77
2019-04-21T00:50:10.870Z,1020.79
2019-04-21T00:52:24.469Z,1020.80
2019-04-21T00:53:32.133Z,1020.84
2019-04-21T00:54:27.494Z,1020.76
2019-04-21T00:55:23.071Z,1020.78
2019-04-21T00:56:15.275Z,1020.77
2019-04-21T00:57:13.090Z,1020.74
2019-04-21T00:58:13.140Z,1020.74
2019-04-21T00:59:13.959Z,1020.71
2019-04-21T01:00:15.538Z,1020.71
2019-04-21T01:01:09.043Z,1020.68
2019-04-21T01:02:12.404Z,1020.69
2019-04-21T01:03:09.591Z,1020.67
2019-04-21T01:04:13.924Z,1020.67
2019-04-21T01:05:13.460Z,1020.66
2019-04-21T01:06:11.443Z,1020.67
2019-04-21T01:07:18.042Z,1020.65
2019-04-21T01:08:09.528Z,1020.65
2019-04-21T01:09:09.532Z,1020.62
2019-04-21T01:10:06.554Z,1020.64
2019-04-21T01:11:12.387Z,1020.61
2019-04-21T01:12:07.793Z,1020.59
2019-04-21T01:13:18.769Z,1020.57
2019-04-21T01:14:13.462Z,1020.62
2019-04-21T01:15:22.794Z,1020.62
2019-04-21T01:16:14.815Z,1020.63
2019-04-21T01:17:14.585Z,1020.59
2019-04-21T01:18:12.956Z,1020.57
2019-04-21T01:19:12.003Z,1020.57
2019-04-21T01:20:01.195Z,1020.57
2019-04-21T01:20:49.885Z,1020.53
2019-04-21T01:21:49.952Z,1020.52
2019-04-21T01:22:50.013Z,1020.56
2019-04-21T01:23:50.749Z,1020.52
2019-04-21T01:25:01.668Z,1020.56
2019-04-21T01:26:01.868Z,1020.53
2019-04-21T01:27:02.270Z,1020.55
2019-04-21T01:28:06.956Z,1020.53
2019-04-21T01:29:10.417Z,1020.56
2019-04-21T01:30:14.225Z,1020.55
2019-04-21T01:31:08.834Z,1020.55
2019-04-21T01:32:19.608Z,1020.53
2019-04-21T01:33:15.211Z,1020.54
2019-04-21T01:34:08.738Z,1020.55
2019-04-21T01:35:12.008Z,1020.54
2019-04-21T01:36:08.250Z,1020.55
2019-04-21T01:37:07.733Z,1020.50
2019-04-21T01:38:16.676Z,1020.56
2019-04-21T01:39:14.558Z,1020.56
2019-04-21T01:40:18.394Z,1020.57
2019-04-21T01:41:13.231Z,1020.55
2019-04-21T01:42:12.627Z,1020.52
2019-04-21T01:43:11.545Z,1020.51
2019-04-21T01:44:19.688Z,1020.49
2019-04-21T01:45:09.365Z,1020.49
2019-04-21T01:46:11.287Z,1020.47
2019-04-21T01:47:08.636Z,1020.47
2019-04-21T01:48:05.761Z,1020.45
2019-04-21T01:49:05.168Z,1020.43
2019-04-21T01:50:01.582Z,1020.43
2019-04-21T01:51:08.917Z,1020.47
2019-04-21T01:53:17.546Z,1020.41
2019-04-21T01:54:16.010Z,1020.41
2019-04-21T01:55:12.641Z,1020.41
2019-04-21T01:56:11.629Z,1020.46
2019-04-21T01:57:08.148Z,1020.43
2019-04-21T01:58:09.720Z,1020.42
2019-04-21T01:59:02.714Z,1020.44
2019-04-21T02:00:00.852Z,1020.43
2019-04-21T02:01:08.714Z,1020.41
2019-04-21T02:02:11.057Z,1020.41
2019-04-21T02:03:28.947Z,1020.39
2019-04-21T02:04:22.822Z,1020.39
2019-04-21T02:05:24.982Z,1020.39
2019-04-21T02:06:18.490Z,1020.37
2019-04-21T02:07:17.635Z,1020.33
2019-04-21T02:08:11.220Z,1020.33
2019-04-21T02:09:09.802Z,1020.34
2019-04-21T02:10:22.546Z,1020.32
2019-04-21T02:11:18.891Z,1020.30
2019-04-21T02:12:17.190Z,1020.30
2019-04-21T02:13:12.084Z,1020.28
2019-04-21T02:14:15.664Z,1020.30
2019-04-21T02:15:20.212Z,1020.27
2019-04-21T02:16:28.356Z,1020.26
2019-04-21T02:17:13.231Z,1020.24
2019-04-21T02:18:12.015Z,1020.28
2019-04-21T02:19:11.209Z,1020.23
2019-04-21T02:20:06.781Z,1020.27
2019-04-21T02:21:00.393Z,1020.24
2019-04-21T02:22:11.207Z,1020.26
2019-04-21T02:24:23.926Z,1020.23
2019-04-21T02:25:36.960Z,1020.23
2019-04-21T02:26:19.460Z,1020.24
2019-04-21T02:27:13.201Z,1020.20
2019-04-21T02:28:20.691Z,1020.20
2019-04-21T02:29:23.013Z,1020.20
2019-04-21T02:30:29.680Z,1020.23
2019-04-21T02:31:26.631Z,1020.22
2019-04-21T02:32:26.241Z,1020.25
2019-04-21T02:34:23.526Z,1020.21
2019-04-21T02:35:30.404Z,1020.23
2019-04-21T02:37:36.681Z,1020.21
2019-04-21T02:38:34.288Z,1020.20
2019-04-21T02:40:29.795Z,1020.16
2019-04-21T02:42:26.461Z,1020.17
2019-04-21T02:44:30.153Z,1020.11
2019-04-21T02:45:30.437Z,1020.08
2019-04-21T02:46:35.334Z,1020.05
2019-04-21T02:47:36.979Z,1020.08
2019-04-21T02:48:35.016Z,1020.06
2019-04-21T02:49:34.476Z,1020.03
2019-04-21T02:50:43.751Z,1019.96
2019-04-21T02:51:27.635Z,1019.98
2019-04-21T02:52:30.951Z,1019.98
2019-04-21T02:53:30.433Z,1019.97
2019-04-21T02:55:26.384Z,1019.95
2019-04-21T02:56:51.469Z,1019.94
2019-04-21T02:57:22.706Z,1019.89
2019-04-21T02:59:33.963Z,1019.87
2019-04-21T03:02:35.126Z,1019.83
2019-04-21T03:03:31.705Z,1019.83
2019-04-21T03:04:30.220Z,1019.80
2019-04-21T03:05:39.708Z,1019.78
2019-04-21T03:06:39.363Z,1019.79
2019-04-21T03:08:38.544Z,1019.72
2019-04-21T03:09:46.059Z,1019.74
2019-04-21T03:11:35.000Z,1019.72
2019-04-21T03:12:39.183Z,1019.70
2019-04-21T03:13:33.523Z,1019.73
2019-04-21T03:14:41.363Z,1019.70
2019-04-21T03:15:31.189Z,1019.73
2019-04-21T03:17:35.826Z,1019.74
2019-04-21T03:18:37.694Z,1019.70
2019-04-21T03:19:39.170Z,1019.71
2019-04-21T03:22:24.776Z,1019.70
2019-04-21T03:23:29.492Z,1019.69
2019-04-21T03:24:39.951Z,1019.73
2019-04-21T03:25:43.210Z,1019.68
2019-04-21T03:26:48.118Z,1019.66
2019-04-21T03:27:50.286Z,1019.69
2019-04-21T03:28:30.514Z,1019.69
2019-04-21T03:29:48.311Z,1019.66
2019-04-21T03:30:58.954Z,1019.64
2019-04-21T03:31:55.457Z,1019.66
2019-04-21T03:34:20.352Z,1019.67
2019-04-21T03:36:02.246Z,1019.67
2019-04-21T03:36:57.112Z,1019.67
2019-04-21T03:37:33.448Z,1019.64
2019-04-21T03:39:31.315Z,1019.66
2019-04-21T03:40:27.248Z,1019.64
2019-04-21T03:41:32.164Z,1019.67
2019-04-21T03:43:28.345Z,1019.64
2019-04-21T03:44:33.155Z,1019.65
2019-04-21T03:46:32.885Z,1019.64
2019-04-21T03:47:30.639Z,1019.64
2019-04-21T03:48:40.952Z,1019.63
2019-04-21T03:50:39.859Z,1019.62
2019-04-21T03:51:25.969Z,1019.59
2019-04-21T03:54:37.431Z,1019.56
2019-04-21T03:57:46.932Z,1019.54
2019-04-21T03:58:47.404Z,1019.53
2019-04-21T03:59:24.542Z,1019.54
2019-04-21T04:01:22.031Z,1019.51
2019-04-21T04:02:35.045Z,1019.50
2019-04-21T04:04:34.202Z,1019.46
2019-04-21T04:05:51.732Z,1019.43
2019-04-21T04:06:28.621Z,1019.44
2019-04-21T04:08:44.747Z,1019.40
2019-04-21T04:10:50.090Z,1019.43
2019-04-21T04:12:46.969Z,1019.39
2019-04-21T04:13:44.925Z,1019.37
2019-04-21T04:15:38.525Z,1019.36
2019-04-21T04:16:37.207Z,1019.33
2019-04-21T04:17:44.197Z,1019.29
2019-04-21T04:18:46.764Z,1019.32
2019-04-21T04:20:45.480Z,1019.34
2019-04-21T04:22:59.048Z,1019.29
2019-04-21T04:23:41.601Z,1019.30
2019-04-21T04:24:44.690Z,1019.30
2019-04-21T04:25:27.432Z,1019.31
2019-04-21T04:26:37.384Z,1019.32
2019-04-21T04:27:46.899Z,1019.31
2019-04-21T04:30:39.428Z,1019.30
2019-04-21T04:32:42.101Z,1019.28
2019-04-21T04:34:40.549Z,1019.28
2019-04-21T04:35:42.398Z,1019.25
2019-04-21T04:36:51.277Z,1019.27
2019-04-21T04:38:41.079Z,1019.25
2019-04-21T04:39:43.888Z,1019.22
2019-04-21T04:42:00.332Z,1019.21
2019-04-21T04:42:41.042Z,1019.25
2019-04-21T04:43:35.277Z,1019.23
2019-04-21T04:44:46.368Z,1019.23
2019-04-21T04:45:44.504Z,1019.23
2019-04-21T04:46:44.241Z,1019.21
2019-04-21T04:47:37.104Z,1019.23
2019-04-21T04:49:46.187Z,1019.25
2019-04-21T04:50:45.584Z,1019.22
2019-04-21T04:51:48.372Z,1019.27
2019-04-21T04:52:41.087Z,1019.20
2019-04-21T04:53:42.643Z,1019.22
2019-04-21T04:55:33.915Z,1019.20
2019-04-21T04:56:43.107Z,1019.22
2019-04-21T04:59:42.558Z,1019.21
2019-04-21T05:03:47.404Z,1019.24
2019-04-21T05:06:42.159Z,1019.22
2019-04-21T05:08:56.675Z,1019.15
2019-04-21T05:09:33.552Z,1019.23
2019-04-21T05:10:59.534Z,1019.16
2019-04-21T05:12:29.263Z,1019.23
2019-04-21T05:13:37.445Z,1019.20
2019-04-21T05:14:30.126Z,1019.18
2019-04-21T05:15:30.036Z,1019.23
2019-04-21T05:17:38.554Z,1019.22
2019-04-21T05:18:50.342Z,1019.20
2019-04-21T05:19:41.910Z,1019.19
2019-04-21T05:20:24.911Z,1019.18
2019-04-21T05:21:34.395Z,1019.17
2019-04-21T05:22:30.120Z,1019.17
2019-04-21T05:23:24.387Z,1019.18
2019-04-21T05:24:25.656Z,1019.18
2019-04-21T05:25:23.775Z,1019.16
2019-04-21T05:26:17.127Z,1019.17
2019-04-21T05:27:23.506Z,1019.13
2019-04-21T05:28:15.150Z,1019.18
2019-04-21T05:29:15.762Z,1019.15
2019-04-21T05:30:45.081Z,1019.14
2019-04-21T05:31:34.488Z,1019.13
2019-04-21T05:32:37.903Z,1019.10
2019-04-21T05:33:34.623Z,1019.14
2019-04-21T05:34:28.732Z,1019.15
2019-04-21T05:35:27.828Z,1019.12
2019-04-21T05:36:30.895Z,1019.13
2019-04-21T05:37:25.953Z,1019.16
2019-04-21T05:38:22.290Z,1019.16
2019-04-21T05:39:23.221Z,1019.15
2019-04-21T05:40:22.165Z,1019.13
2019-04-21T05:41:18.411Z,1019.10
2019-04-21T05:42:23.819Z,1019.10
2019-04-21T05:43:28.328Z,1019.10
2019-04-21T05:44:34.805Z,1019.06
2019-04-21T05:45:33.439Z,1019.08
2019-04-21T05:46:32.356Z,1019.09
2019-04-21T05:47:34.641Z,1019.11
2019-04-21T05:48:28.261Z,1019.13
2019-04-21T05:49:28.004Z,1019.14
2019-04-21T05:50:30.561Z,1019.15
2019-04-21T05:51:24.739Z,1019.18
2019-04-21T05:52:22.909Z,1019.19
2019-04-21T05:53:42.553Z,1019.18
2019-04-21T05:54:34.267Z,1019.18
2019-04-21T05:56:32.407Z,1019.16
2019-04-21T05:57:32.340Z,1019.20
2019-04-21T05:58:30.130Z,1019.16
2019-04-21T05:59:29.704Z,1019.17
2019-04-21T06:00:39.032Z,1019.19
2019-04-21T06:01:33.241Z,1019.20
2019-04-21T06:03:36.949Z,1019.19
2019-04-21T06:04:52.093Z,1019.15
2019-04-21T06:05:38.574Z,1019.18
2019-04-21T06:06:34.190Z,1019.15
2019-04-21T06:07:28.805Z,1019.20
2019-04-21T06:08:32.940Z,1019.16
2019-04-21T06:09:29.698Z,1019.16
2019-04-21T06:10:39.707Z,1019.16
2019-04-21T06:11:30.739Z,1019.19
2019-04-21T06:12:36.104Z,1019.17
2019-04-21T06:13:34.791Z,1019.14
2019-04-21T06:14:37.536Z,1019.12
2019-04-21T06:15:32.594Z,1019.16
2019-04-21T06:16:36.465Z,1019.15
2019-04-21T06:17:34.880Z,1019.13
2019-04-21T06:19:36.965Z,1019.15
2019-04-21T06:20:35.375Z,1019.15
2019-04-21T06:21:37.189Z,1019.10
2019-04-21T06:22:34.017Z,1019.13
2019-04-21T06:23:30.587Z,1019.14
2019-04-21T06:24:29.947Z,1019.10
2019-04-21T06:25:51.185Z,1019.08
2019-04-21T06:26:50.300Z,1019.12
2019-04-21T06:27:32.486Z,1019.07
2019-04-21T06:28:33.729Z,1019.07
2019-04-21T06:29:29.781Z,1019.07
2019-04-21T06:30:36.834Z,1019.08
2019-04-21T06:32:03.854Z,1019.09
2019-04-21T06:32:47.281Z,1019.08
2019-04-21T06:33:36.354Z,1019.08
2019-04-21T06:34:43.715Z,1019.08
2019-04-21T06:35:45.293Z,1019.08
2019-04-21T06:36:47.107Z,1019.06
2019-04-21T06:38:47.737Z,1019.08
2019-04-21T06:39:44.808Z,1019.09
2019-04-21T06:40:36.901Z,1019.08
2019-04-21T06:42:35.424Z,1019.06
2019-04-21T06:43:33.231Z,1019.06
2019-04-21T06:44:33.064Z,1019.07
2019-04-21T06:45:37.942Z,1019.08
2019-04-21T06:47:59.262Z,1019.09
2019-04-21T06:48:32.718Z,1019.09
2019-04-21T06:49:30.287Z,1019.10
2019-04-21T06:50:41.184Z,1019.09
2019-04-21T06:51:30.703Z,1019.14
2019-04-21T06:52:46.492Z,1019.10
2019-04-21T06:53:37.733Z,1019.13
2019-04-21T06:54:34.158Z,1019.12
2019-04-21T06:55:34.045Z,1019.10
2019-04-21T06:56:38.030Z,1019.09
2019-04-21T06:57:35.743Z,1019.09
2019-04-21T06:58:32.877Z,1019.09
2019-04-21T06:59:36.590Z,1019.14
2019-04-21T07:00:31.599Z,1019.79
2019-04-21T07:01:36.303Z,1020.45
2019-04-21T07:02:50.684Z,1020.84
2019-04-21T07:03:35.064Z,1020.88
2019-04-21T07:04:51.708Z,1020.84
2019-04-21T07:05:34.638Z,1020.83
2019-04-21T07:06:37.280Z,1020.86
2019-04-21T07:07:35.380Z,1020.84
2019-04-21T07:08:34.549Z,1020.83
2019-04-21T07:09:31.890Z,1020.86
2019-04-21T07:10:35.050Z,1020.86
2019-04-21T07:11:33.422Z,1020.85
2019-04-21T07:12:37.304Z,1020.88
2019-04-21T07:13:31.024Z,1020.84
2019-04-21T07:14:49.785Z,1020.82
2019-04-21T07:15:39.074Z,1020.81
2019-04-21T07:16:38.698Z,1020.79
2019-04-21T07:17:35.160Z,1020.78
2019-04-21T07:18:37.472Z,1020.87
2019-04-21T07:19:41.896Z,1020.85
2019-04-21T07:20:36.593Z,1020.85
2019-04-21T07:21:34.393Z,1020.89
2019-04-21T07:22:40.164Z,1020.85
2019-04-21T07:23:38.692Z,1020.88
2019-04-21T07:24:37.309Z,1020.86
2019-04-21T07:25:39.269Z,1020.88
2019-04-21T07:26:36.378Z,1020.91
2019-04-21T07:27:35.432Z,1020.90
2019-04-21T07:28:38.895Z,1020.97
2019-04-21T07:29:41.369Z,1020.97
2019-04-21T07:30:37.756Z,1021.00
2019-04-21T07:31:43.740Z,1021.00
2019-04-21T07:32:33.493Z,1021.06
2019-04-21T07:35:54.019Z,1020.99
2019-04-21T07:36:47.795Z,1020.98
2019-04-21T07:37:36.599Z,1020.93
2019-04-21T07:38:36.275Z,1020.86
2019-04-21T07:39:32.597Z,1020.82
2019-04-21T07:40:29.108Z,1020.79
2019-04-21T07:41:31.028Z,1020.81
2019-04-21T07:42:32.526Z,1020.77
2019-04-21T07:43:32.984Z,1020.68
2019-04-21T07:44:28.737Z,1020.60
2019-04-21T07:45:31.848Z,1020.60
2019-04-21T07:46:27.443Z,1020.52
2019-04-21T07:47:34.658Z,1020.41
2019-04-21T07:48:37.594Z,1020.31
2019-04-21T07:49:43.592Z,1020.33
2019-04-21T07:50:38.997Z,1020.36
2019-04-21T07:51:37.835Z,1020.28
2019-04-21T07:52:53.322Z,1020.27
2019-04-21T07:53:45.637Z,1020.23
2019-04-21T07:54:37.457Z,1020.20
2019-04-21T07:56:20.283Z,1020.20
2019-04-21T07:57:33.268Z,1020.16
2019-04-21T07:58:42.965Z,1020.14
2019-04-21T08:00:47.779Z,1020.12
2019-04-21T08:01:35.524Z,1020.13
2019-04-21T08:02:34.092Z,1020.12
2019-04-21T08:03:41.077Z,1020.09
2019-04-21T08:04:52.497Z,1020.11
2019-04-21T08:05:53.728Z,1020.13
2019-04-21T08:07:48.812Z,1020.07
2019-04-21T08:08:34.520Z,1020.06
2019-04-21T08:09:45.217Z,1020.04
2019-04-21T08:10:33.517Z,1020.00
2019-04-21T08:11:31.080Z,1020.02
2019-04-21T08:12:30.674Z,1020.00
2019-04-21T08:13:40.202Z,1020.01
2019-04-21T08:14:35.606Z,1020.00
2019-04-21T08:15:40.982Z,1019.95
2019-04-21T08:16:36.855Z,1019.89
2019-04-21T08:17:36.717Z,1019.89
2019-04-21T08:18:39.503Z,1019.84
2019-04-21T08:19:37.003Z,1019.84
2019-04-21T08:20:34.917Z,1019.81
2019-04-21T08:21:43.238Z,1019.78
2019-04-21T08:22:42.216Z,1019.81
2019-04-21T08:23:37.019Z,1019.83
2019-04-21T08:24:46.856Z,1019.79
2019-04-21T08:25:50.755Z,1019.78
2019-04-21T08:26:44.605Z,1019.76
2019-04-21T08:27:40.422Z,1019.74
2019-04-21T08:28:43.752Z,1019.73
2019-04-21T08:29:42.997Z,1019.77
2019-04-21T08:30:37.818Z,1019.69
2019-04-21T08:31:53.034Z,1019.52
2019-04-21T08:32:51.769Z,1019.38
2019-04-21T08:34:52.531Z,1019.29
2019-04-21T08:36:07.997Z,1019.25
2019-04-21T08:36:33.917Z,1019.22
2019-04-21T08:37:38.075Z,1019.22
2019-04-21T08:38:42.269Z,1019.21
2019-04-21T08:39:49.749Z,1019.18
2019-04-21T08:40:45.805Z,1019.18
2019-04-21T08:41:41.126Z,1019.14
2019-04-21T08:42:40.026Z,1019.09
2019-04-21T08:43:42.578Z,1019.07
2019-04-21T08:44:42.580Z,1019.08
2019-04-21T08:45:41.511Z,1019.06
2019-04-21T08:46:44.900Z,1019.06
2019-04-21T08:47:41.449Z,1019.05
2019-04-21T08:48:42.292Z,1019.04
2019-04-21T08:49:41.471Z,1018.99
2019-04-21T08:51:44.756Z,1018.95
2019-04-21T08:52:52.239Z,1018.95
2019-04-21T08:53:41.105Z,1018.93
2019-04-21T08:54:43.918Z,1018.92
2019-04-21T08:55:42.976Z,1018.91
2019-04-21T08:56:45.525Z,1018.86
2019-04-21T08:57:50.487Z,1018.83
2019-04-21T08:58:47.838Z,1018.84
2019-04-21T08:59:36.333Z,1018.83
2019-04-21T09:00:38.961Z,1018.81
2019-04-21T09:01:42.929Z,1018.79
2019-04-21T09:02:43.271Z,1018.74
2019-04-21T09:03:44.622Z,1018.72
2019-04-21T09:04:37.787Z,1018.72
2019-04-21T09:05:36.519Z,1018.72
2019-04-21T09:06:55.221Z,1018.73
2019-04-21T09:08:44.473Z,1018.67
2019-04-21T09:09:44.211Z,1018.64
2019-04-21T09:10:40.002Z,1018.65
2019-04-21T09:11:40.503Z,1018.63
2019-04-21T09:13:41.170Z,1018.63
2019-04-21T09:14:42.918Z,1018.65
2019-04-21T09:15:35.097Z,1018.62
2019-04-21T09:16:35.496Z,1018.63
2019-04-21T09:17:35.576Z,1018.61
2019-04-21T09:18:32.459Z,1018.61
2019-04-21T09:19:51.420Z,1018.59
2019-04-21T09:20:48.193Z,1018.58
2019-04-21T09:21:46.936Z,1018.57
2019-04-21T09:22:41.213Z,1018.51
2019-04-21T09:23:43.726Z,1018.49
2019-04-21T09:24:41.032Z,1018.50
2019-04-21T09:26:35.578Z,1018.52
2019-04-21T09:27:36.785Z,1018.46
2019-04-21T09:28:38.434Z,1018.48
2019-04-21T09:29:30.984Z,1018.50
2019-04-21T09:30:23.970Z,1018.46
2019-04-21T09:31:28.222Z,1018.44
2019-04-21T09:32:26.842Z,1018.46
2019-04-21T09:33:29.679Z,1018.41
2019-04-21T09:34:30.561Z,1018.39
2019-04-21T09:35:24.111Z,1018.33
2019-04-21T09:36:25.466Z,1018.33
2019-04-21T09:37:36.978Z,1018.31
2019-04-21T09:38:32.837Z,1018.32
2019-04-21T09:39:27.312Z,1018.29
2019-04-21T09:40:30.223Z,1018.25
2019-04-21T09:41:25.795Z,1018.24
2019-04-21T09:42:33.283Z,1018.22
2019-04-21T09:43:30.627Z,1018.21
2019-04-21T09:44:30.964Z,1018.21
2019-04-21T09:45:24.452Z,1018.18
2019-04-21T09:46:25.338Z,1018.18
2019-04-21T09:47:33.582Z,1018.18
2019-04-21T09:48:25.901Z,1018.15
2019-04-21T09:49:29.099Z,1018.08
2019-04-21T09:50:24.322Z,1018.05
2019-04-21T09:51:24.219Z,1018.04
2019-04-21T09:52:31.010Z,1018.06
2019-04-21T09:53:31.168Z,1018.05
2019-04-21T09:54:28.451Z,1017.99
2019-04-21T09:55:31.502Z,1017.96
2019-04-21T09:56:34.607Z,1017.92
2019-04-21T09:57:35.060Z,1017.88
2019-04-21T09:58:32.828Z,1017.81
2019-04-21T09:59:29.966Z,1017.83
2019-04-21T10:00:29.072Z,1017.78
2019-04-21T10:01:32.154Z,1017.76
2019-04-21T10:02:34.295Z,1017.74
2019-04-21T10:03:26.204Z,1017.79
2019-04-21T10:04:26.563Z,1017.80
2019-04-21T10:05:25.263Z,1017.81
2019-04-21T10:06:26.066Z,1017.72
2019-04-21T10:07:31.887Z,1017.71
2019-04-21T10:08:25.478Z,1017.68
2019-04-21T10:09:26.445Z,1017.70
2019-04-21T10:10:25.630Z,1017.66
2019-04-21T10:11:26.734Z,1017.64
2019-04-21T10:12:25.771Z,1017.65
2019-04-21T10:13:25.842Z,1017.57
2019-04-21T10:14:26.432Z,1017.59
2019-04-21T10:15:27.021Z,1017.54
2019-04-21T10:16:26.148Z,1017.51
2019-04-21T10:17:27.430Z,1017.45
2019-04-21T10:18:27.303Z,1017.40
2019-04-21T10:19:27.453Z,1017.42
2019-04-21T10:20:26.528Z,1017.37
2019-04-21T10:21:27.665Z,1017.36
2019-04-21T10:22:26.746Z,1017.35
2019-04-21T10:23:27.472Z,1017.33
2019-04-21T10:24:26.650Z,1017.31
2019-04-21T10:25:26.718Z,1017.33
2019-04-21T10:26:26.787Z,1017.26
2019-04-21T10:27:27.338Z,1017.26
2019-04-21T10:28:26.978Z,1017.24
2019-04-21T10:29:30.916Z,1017.23
2019-04-21T10:30:27.090Z,1017.24
2019-04-21T10:31:27.151Z,1017.22
2019-04-21T10:32:28.206Z,1017.20
2019-04-21T10:33:28.269Z,1017.21
2019-04-21T10:34:27.488Z,1017.16
2019-04-21T10:35:28.546Z,1017.14
2019-04-21T10:36:27.751Z,1017.11
2019-04-21T10:37:40.031Z,1017.09
2019-04-21T10:38:36.589Z,1017.07
2019-04-21T10:39:27.736Z,1017.07
2019-04-21T10:40:30.720Z,1017.03
2019-04-21T10:41:27.872Z,1016.96
2019-04-21T10:42:28.869Z,1016.94
2019-04-21T10:43:29.238Z,1016.96
2019-04-21T10:44:29.418Z,1016.96
2019-04-21T10:45:28.679Z,1016.94
2019-04-21T10:46:28.900Z,1016.90
2019-04-21T10:47:29.338Z,1016.88
2019-04-21T10:48:29.300Z,1016.90
2019-04-21T10:49:28.723Z,1016.88
2019-04-21T10:50:28.774Z,1016.88
2019-04-21T10:51:28.821Z,1016.85
2019-04-21T10:52:30.962Z,1016.84
2019-04-21T10:53:29.094Z,1016.83
2019-04-21T10:54:42.056Z,1016.85
2019-04-21T10:55:44.641Z,1016.85
2019-04-21T10:56:35.046Z,1016.82
2019-04-21T10:57:29.019Z,1016.80
2019-04-21T10:58:29.088Z,1016.79
2019-04-21T10:59:29.257Z,1016.75
2019-04-21T11:00:30.130Z,1016.78
2019-04-21T11:01:29.514Z,1016.75
2019-04-21T11:02:30.619Z,1016.69
2019-04-21T11:03:30.913Z,1016.72
2019-04-21T11:04:33.733Z,1016.71
2019-04-21T11:05:30.542Z,1016.71
2019-04-21T11:06:30.791Z,1016.68
2019-04-21T11:07:33.436Z,1016.69
2019-04-21T11:08:34.372Z,1016.65
2019-04-21T11:09:29.989Z,1016.65
2019-04-21T11:10:29.960Z,1016.64
2019-04-21T11:11:30.225Z,1016.66
2019-04-21T11:12:31.344Z,1016.62
2019-04-21T11:13:30.741Z,1016.58
2019-04-21T11:14:31.395Z,1016.59
2019-04-21T11:15:30.307Z,1016.60
2019-04-21T11:16:30.949Z,1016.59
2019-04-21T11:17:30.462Z,1016.55
2019-04-21T11:18:31.704Z,1016.59
2019-04-21T11:19:30.781Z,1016.50
2019-04-21T11:20:30.977Z,1016.55
2019-04-21T11:21:31.141Z,1016.56
2019-04-21T11:22:33.468Z,1016.53
2019-04-21T11:23:31.277Z,1016.52
2019-04-21T11:24:31.348Z,1016.48
2019-04-21T11:25:31.026Z,1016.48
2019-04-21T11:26:31.790Z,1016.46
2019-04-21T11:27:31.161Z,1016.47
2019-04-21T11:28:31.287Z,1016.42
2019-04-21T11:29:31.315Z,1016.44
2019-04-21T11:30:31.720Z,1016.37
2019-04-21T11:31:31.446Z,1016.35
2019-04-21T11:32:32.749Z,1016.30
2019-04-21T11:33:31.587Z,1016.30
2019-04-21T11:34:31.666Z,1016.30
2019-04-21T11:35:32.905Z,1016.26
2019-04-21T11:36:33.119Z,1016.26
2019-04-21T11:37:32.319Z,1016.28
2019-04-21T11:38:35.507Z,1016.28
2019-04-21T11:39:42.095Z,1016.27
2019-04-21T11:40:32.094Z,1016.23
2019-04-21T11:41:32.205Z,1016.18
2019-04-21T11:42:33.461Z,1016.19
2019-04-21T11:43:32.879Z,1016.21
2019-04-21T11:44:33.127Z,1016.18
2019-04-21T11:45:32.821Z,1016.19
2019-04-21T11:46:32.515Z,1016.12
2019-04-21T11:47:32.587Z,1016.13
2019-04-21T11:48:32.659Z,1016.12
2019-04-21T11:49:32.739Z,1016.06
2019-04-21T11:50:32.894Z,1016.04
2019-04-21T11:51:33.302Z,1016.04
2019-04-21T11:52:32.958Z,1015.99
2019-04-21T11:53:33.018Z,1015.99
2019-04-21T11:54:33.096Z,1015.98
2019-04-21T11:55:37.078Z,1016.00
2019-04-21T11:56:33.243Z,1015.99
2019-04-21T11:57:38.360Z,1015.95
2019-04-21T11:58:34.072Z,1015.95
2019-04-21T11:59:33.547Z,1015.91
2019-04-21T12:00:33.641Z,1015.93
2019-04-21T12:01:33.828Z,1015.87
2019-04-21T12:02:33.656Z,1015.85
2019-04-21T12:03:33.733Z,1015.83
2019-04-21T12:04:33.819Z,1015.85
2019-04-21T12:05:35.161Z,1015.87
2019-04-21T12:06:39.195Z,1015.88
2019-04-21T12:07:35.318Z,1015.82
2019-04-21T12:08:40.721Z,1015.85
2019-04-21T12:09:35.346Z,1015.81
2019-04-21T12:10:35.248Z,1015.82
2019-04-21T12:11:35.561Z,1015.75
2019-04-21T12:12:35.094Z,1015.75
2019-04-21T12:13:34.455Z,1015.81
2019-04-21T12:14:34.516Z,1015.78
2019-04-21T12:15:34.727Z,1015.80
2019-04-21T12:16:35.096Z,1015.74
2019-04-21T12:17:36.063Z,1015.79
2019-04-21T12:18:34.799Z,1015.75
2019-04-21T12:19:34.872Z,1015.75
2019-04-21T12:20:35.526Z,1015.75
2019-04-21T12:21:50.588Z,1015.75
2019-04-21T12:22:35.731Z,1015.72
2019-04-21T12:23:36.409Z,1015.68
2019-04-21T12:24:36.797Z,1015.68
2019-04-21T12:25:36.762Z,1015.68
2019-04-21T12:26:35.955Z,1015.67
2019-04-21T12:27:36.115Z,1015.66
2019-04-21T12:28:35.517Z,1015.67
2019-04-21T12:29:35.650Z,1015.64
2019-04-21T12:30:35.791Z,1015.60
2019-04-21T12:31:35.899Z,1015.61
2019-04-21T12:32:36.063Z,1015.63
2019-04-21T12:33:36.260Z,1015.60
2019-04-21T12:34:36.231Z,1015.63
2019-04-21T12:35:36.021Z,1015.57
2019-04-21T12:36:36.095Z,1015.59
2019-04-21T12:37:37.170Z,1015.56
2019-04-21T12:38:44.716Z,1015.59
2019-04-21T12:39:36.885Z,1015.54
2019-04-21T12:40:36.697Z,1015.49
2019-04-21T12:41:36.449Z,1015.55
2019-04-21T12:42:38.840Z,1015.46
2019-04-21T12:43:36.961Z,1015.45
2019-04-21T12:44:37.141Z,1015.44
2019-04-21T12:45:37.861Z,1015.38
2019-04-21T12:46:38.044Z,1015.40
2019-04-21T12:47:37.813Z,1015.40
2019-04-21T12:48:38.028Z,1015.40
2019-04-21T12:49:38.085Z,1015.35
2019-04-21T12:50:37.087Z,1015.33
2019-04-21T12:51:37.689Z,1015.34
2019-04-21T12:52:37.886Z,1015.35
2019-04-21T12:53:37.298Z,1015.30
2019-04-21T12:54:37.698Z,1015.33
2019-04-21T12:55:41.049Z,1015.32
2019-04-21T12:56:37.926Z,1015.27
2019-04-21T12:57:37.590Z,1015.24
2019-04-21T12:58:37.653Z,1015.25
2019-04-21T12:59:39.269Z,1015.23
2019-04-21T13:00:38.889Z,1015.17
2019-04-21T13:01:39.002Z,1015.15
2019-04-21T13:02:38.056Z,1015.16
2019-04-21T13:03:38.020Z,1015.20
2019-04-21T13:04:38.082Z,1015.16
2019-04-21T13:05:38.153Z,1015.12
2019-04-21T13:06:39.432Z,1015.07
2019-04-21T13:07:39.456Z,1015.11
2019-04-21T13:08:45.601Z,1015.06
2019-04-21T13:09:38.439Z,1015.05
2019-04-21T13:10:38.510Z,1015.05
2019-04-21T13:11:39.255Z,1015.02
2019-04-21T13:12:38.667Z,1015.01
2019-04-21T13:13:39.867Z,1014.97
2019-04-21T13:14:39.893Z,1014.95
2019-04-21T13:15:39.807Z,1014.90